Time;durP1;ratioP1;P1;durP2;ratioP2;P2;SDS_P1;SDS_P2;PMS_P1;PMS_P2;Temp;Humidity;BMP_temperature;BMP_pressure;BME280_temperature;BME280_humidity;BME280_pressure;Samples;Min_cycle;Max_cycle;Signal;HPM_P1;HPM_P2
2021/06/29 00:02:31;;;;;;;34.25;28.27;;;;;;;20.67;77.71;101148.59;5130380;27;20442;-47
2021/06/29 00:05:33;;;;;;;31.92;28.40;;;;;;;20.64;77.72;101158.38;5190092;27;20403;-49
2021/06/29 00:08:12;;;;;;;31.50;28.10;;;;;;;20.64;77.68;101163.91;4504889;27;18700812;-47
2021/06/29 00:11:23;;;;;;;33.22;28.67;;;;;;;20.61;77.90;101159.00;5148966;27;20442;-49
2021/06/29 00:14:02;;;;;;;32.03;28.63;;;;;;;20.61;77.64;101150.69;4493367;27;18643531;-50
2021/06/29 00:17:08;;;;;;;31.17;26.75;;;;;;;20.64;77.80;101158.38;5148536;27;20450;-48
2021/06/29 00:20:07;;;;;;;36.92;30.00;;;;;;;20.62;77.94;101150.38;5184358;27;20716;-48
2021/06/29 00:22:45;;;;;;;31.60;28.13;;;;;;;20.59;77.64;101153.00;4490950;27;18693575;-50
2021/06/29 00:25:41;;;;;;;32.72;29.20;;;;;;;20.58;77.93;101140.28;5193658;27;20414;-50
2021/06/29 00:28:50;;;;;;;32.42;28.65;;;;;;;20.59;77.85;101142.72;5148807;27;20393;-49
2021/06/29 00:31:47;;;;;;;33.83;29.85;;;;;;;20.55;77.90;101136.22;5192904;27;20479;-48
2021/06/29 00:34:45;;;;;;;37.97;32.08;;;;;;;20.54;77.97;101133.72;5193028;27;20391;-49
2021/06/29 00:37:45;;;;;;;37.20;31.55;;;;;;;20.51;78.05;101128.84;5193075;27;20427;-49
2021/06/29 00:40:25;;;;;;;34.90;31.17;;;;;;;20.50;78.02;101121.72;4499568;27;18699534;-50
2021/06/29 00:43:22;;;;;;;35.90;31.98;;;;;;;20.48;78.13;101124.78;5148913;27;20490;-51
2021/06/29 00:46:00;;;;;;;36.90;31.50;;;;;;;20.48;78.38;101129.53;4500673;27;18661442;-49
2021/06/29 00:48:57;;;;;;;34.85;30.40;;;;;;;20.47;78.43;101123.19;5193410;27;20782;-49
2021/06/29 00:51:35;;;;;;;40.40;31.97;;;;;;;20.47;78.35;101130.66;4515521;27;18585944;-52
2021/06/29 00:54:35;;;;;;;38.70;33.47;;;;;;;20.46;78.37;101129.84;5193117;27;20426;-50
2021/06/29 00:57:33;;;;;;;37.35;33.20;;;;;;;20.43;78.45;101128.53;5193391;27;20480;-50
2021/06/29 01:00:29;;;;;;;37.70;33.60;;;;;;;20.41;78.54;101128.06;5148100;27;20516;-49
2021/06/29 01:03:28;;;;;;;36.20;32.13;;;;;;;20.41;78.67;101133.59;5148116;27;20397;-50
2021/06/29 01:06:27;;;;;;;37.10;31.38;;;;;;;20.43;78.48;101128.53;5193041;27;20391;-49
2021/06/29 01:09:24;;;;;;;36.67;31.75;;;;;;;20.44;78.75;101129.34;5193129;27;20411;-50
2021/06/29 01:12:03;;;;;;;37.37;31.40;;;;;;;20.43;78.62;101136.84;4493303;27;18621614;-49
2021/06/29 01:14:56;;;;;;;38.40;33.72;;;;;;;20.42;78.98;101132.47;5148285;27;20402;-50
2021/06/29 01:17:56;;;;;;;39.83;34.10;;;;;;;20.40;78.92;101123.66;5193024;27;20399;-46
2021/06/29 01:21:02;;;;;;;38.97;34.35;;;;;;;20.34;79.09;101119.44;5148666;27;20409;-51
2021/06/29 01:23:58;;;;;;;42.08;35.33;;;;;;;20.32;79.26;101116.16;5148692;27;20899;-49
2021/06/29 01:33:17;;;;;;;41.47;35.38;;;;;;;20.28;79.35;101117.97;5193320;27;20438;-50
2021/06/29 01:36:15;;;;;;;40.30;35.97;;;;;;;20.29;79.50;101116.03;5193110;27;20781;-49
2021/06/29 01:39:13;;;;;;;42.85;35.95;;;;;;;20.27;79.78;101099.75;5193043;27;20422;-52
2021/06/29 01:42:18;;;;;;;39.92;35.58;;;;;;;20.26;79.68;101111.97;5149003;27;20450;-49
2021/06/29 01:45:15;;;;;;;42.58;35.15;;;;;;;20.25;79.64;101099.25;5192829;27;20407;-49
2021/06/29 01:48:20;;;;;;;40.25;35.90;;;;;;;20.25;79.67;101093.72;5144289;27;20472;-48
2021/06/29 01:51:20;;;;;;;44.70;38.45;;;;;;;20.25;79.47;101092.91;5193164;27;20387;-48
2021/06/29 01:53:59;;;;;;;43.93;38.00;;;;;;;20.22;79.50;101088.84;4487691;27;17826374;-50
2021/06/29 01:56:56;;;;;;;45.72;39.50;;;;;;;20.20;79.54;101080.88;5192935;27;20379;-50
2021/06/29 01:59:53;;;;;;;53.13;42.13;;;;;;;20.17;79.83;101077.94;5192520;27;20379;-49
2021/06/29 02:02:32;;;;;;;43.72;38.92;;;;;;;20.14;79.86;101078.59;4484902;27;18570411;-49
2021/06/29 02:05:28;;;;;;;46.05;40.08;;;;;;;20.14;79.91;101082.19;5192969;27;20383;-49
2021/06/29 02:08:07;;;;;;;46.73;39.03;;;;;;;20.15;80.04;101074.69;4150039;27;27007470;-49
2021/06/29 02:11:04;;;;;;;46.83;40.53;;;;;;;20.14;79.96;101075.84;5193084;27;20383;-49
2021/06/29 02:14:01;;;;;;;46.42;41.30;;;;;;;20.13;80.09;101065.91;5148752;27;20816;-47
2021/06/29 02:16:39;;;;;;;51.35;44.40;;;;;;;20.10;80.17;101063.78;3944262;27;33198967;-49
2021/06/29 02:19:38;;;;;;;46.15;40.83;;;;;;;20.05;80.20;101061.19;5114208;27;20414;-49
2021/06/29 02:22:16;;;;;;;44.13;38.70;;;;;;;20.04;80.42;101059.59;4497657;27;18524884;-48
2021/06/29 02:25:13;;;;;;;47.85;40.47;;;;;;;20.04;80.47;101059.59;5193057;27;20432;-50
2021/06/29 02:28:10;;;;;;;48.25;40.55;;;;;;;20.04;80.31;101054.03;5192650;27;20809;-49
2021/06/29 02:30:49;;;;;;;49.47;42.23;;;;;;;20.05;80.36;101055.66;4514935;27;18613470;-47
2021/06/29 02:33:59;;;;;;;48.20;41.67;;;;;;;20.02;80.53;101056.31;5193046;27;20411;-48
2021/06/29 02:37:05;;;;;;;47.47;41.08;;;;;;;20.02;80.61;101067.38;5148983;27;20401;-52
2021/06/29 02:40:04;;;;;;;45.47;40.58;;;;;;;20.02;80.48;101076.50;5193018;27;20407;-48
2021/06/29 02:43:02;;;;;;;48.92;43.63;;;;;;;20.05;80.54;101077.78;5192487;27;20399;-48
2021/06/29 02:45:59;;;;;;;49.42;41.40;;;;;;;20.05;80.43;101080.56;5193410;27;20786;-48
2021/06/29 02:48:57;;;;;;;50.47;41.80;;;;;;;20.05;80.41;101064.78;5193068;27;20434;-47
2021/06/29 02:51:52;;;;;;;48.65;40.75;;;;;;;20.05;80.42;101064.78;5148930;27;20397;-49
2021/06/29 02:54:30;;;;;;;49.57;41.73;;;;;;;20.05;80.37;101064.78;4496545;27;18773554;-49
2021/06/29 02:57:29;;;;;;;49.85;43.15;;;;;;;20.05;80.28;101066.72;5148770;27;20743;-49
2021/06/29 03:00:26;;;;;;;47.75;42.25;;;;;;;20.03;80.36;101069.00;5193180;27;20403;-49
2021/06/29 03:03:24;;;;;;;55.17;44.60;;;;;;;20.03;80.39;101069.81;5192963;27;20481;-50
2021/06/29 03:06:21;;;;;;;50.17;41.05;;;;;;;20.02;80.45;101070.16;5193216;27;20785;-50
2021/06/29 03:09:19;;;;;;;45.97;40.08;;;;;;;20.02;80.68;101061.84;5193337;27;20478;-51
2021/06/29 03:11:57;;;;;;;48.23;40.97;;;;;;;20.03;80.35;101058.75;4469549;27;17880087;-49
2021/06/29 03:14:37;;;;;;;47.65;41.95;;;;;;;20.03;80.11;101063.47;4503498;27;18573069;-46
2021/06/29 03:17:34;;;;;;;54.25;43.55;;;;;;;20.03;80.32;101052.41;5192803;27;20410;-51
2021/06/29 03:20:43;;;;;;;47.75;42.42;;;;;;;20.02;80.14;101064.63;5148737;27;20509;-49
2021/06/29 03:23:45;;;;;;;52.55;43.80;;;;;;;20.02;80.25;101061.84;5149247;27;20401;-47
2021/06/29 03:26:24;;;;;;;48.67;41.90;;;;;;;20.00;80.32;101065.75;4502593;27;18624064;-49
2021/06/29 03:29:21;;;;;;;53.53;42.40;;;;;;;19.97;80.33;101058.09;5192577;27;20418;-48
2021/06/29 03:32:20;;;;;;;49.65;42.75;;;;;;;19.98;80.50;101056.97;5193328;27;20703;-51
2021/06/29 03:35:22;;;;;;;49.83;42.22;;;;;;;19.98;80.49;101056.97;5148721;27;20950;-49
2021/06/29 03:38:00;;;;;;;49.10;41.77;;;;;;;19.98;80.31;101065.25;4492603;27;18644149;-50
2021/06/29 03:40:57;;;;;;;48.08;41.13;;;;;;;19.96;80.34;101063.94;5192816;27;20403;-51
2021/06/29 03:44:03;;;;;;;51.88;42.80;;;;;;;19.95;80.34;101060.38;5149036;27;21122;-50
2021/06/29 03:47:09;;;;;;;47.63;41.05;;;;;;;19.97;80.38;101071.94;5149039;27;20433;-46
2021/06/29 03:50:06;;;;;;;48.78;41.30;;;;;;;19.96;80.11;101059.25;5192871;27;20379;-48
2021/06/29 03:53:03;;;;;;;48.53;42.85;;;;;;;19.95;79.85;101060.38;5192618;27;20877;-49
2021/06/29 03:56:24;;;;;;;47.08;41.03;;;;;;;19.93;79.92;101059.06;5148717;27;20397;-50
2021/06/29 03:59:04;;;;;;;48.30;41.43;;;;;;;19.92;80.07;101068.53;4494674;27;18771691;-50
2021/06/29 04:02:02;;;;;;;54.83;42.28;;;;;;;19.92;80.29;101071.28;5180086;27;20475;-50
2021/06/29 04:05:09;;;;;;;45.30;38.05;;;;;;;19.92;80.13;101068.53;5148697;27;20420;-49
2021/06/29 04:08:06;;;;;;;43.90;39.13;;;;;;;19.90;80.15;101060.53;5192892;27;20422;-49
2021/06/29 04:11:04;;;;;;;47.33;40.80;;;;;;;19.91;80.17;101056.63;5193150;27;20394;-53
2021/06/29 04:14:03;;;;;;;50.63;43.05;;;;;;;19.93;80.13;101054.34;5193157;27;20801;-49
2021/06/29 04:17:01;;;;;;;40.97;34.85;;;;;;;19.93;80.28;101053.53;5193393;27;20423;-49
2021/06/29 04:19:59;;;;;;;48.58;41.03;;;;;;;19.90;80.24;101056.97;5193008;27;20746;-49
2021/06/29 04:22:56;;;;;;;47.92;42.72;;;;;;;19.89;80.29;101055.34;5192893;27;20406;-48
2021/06/29 04:25:56;;;;;;;53.70;44.88;;;;;;;19.89;80.03;101055.34;5113864;27;20454;-49
2021/06/29 04:28:53;;;;;;;41.65;34.42;;;;;;;19.90;80.13;101062.50;5192898;27;20387;-50
2021/06/29 04:31:50;;;;;;;40.45;33.35;;;;;;;19.93;79.86;101065.41;5176555;27;20420;-50
2021/06/29 04:34:47;;;;;;;39.15;33.53;;;;;;;19.96;79.74;101063.94;5181156;27;20797;-49
2021/06/29 04:37:45;;;;;;;36.50;30.35;;;;;;;19.99;79.47;101066.91;5181965;27;20380;-51
2021/06/29 04:40:57;;;;;;;49.08;39.20;;;;;;;20.00;79.39;101065.75;5138754;27;20428;-48
2021/06/29 04:44:02;;;;;;;56.92;46.10;;;;;;;19.96;79.84;101059.25;5140912;27;20395;-48
2021/06/29 04:47:11;;;;;;;53.90;45.63;;;;;;;19.92;79.88;101063.81;5132818;27;20432;-51
2021/06/29 04:49:52;;;;;;;52.13;44.13;;;;;;;19.89;80.10;101064.47;4343642;27;20978870;-53
2021/06/29 04:52:55;;;;;;;49.47;39.85;;;;;;;19.89;80.29;101060.88;5138082;27;20452;-53
2021/06/29 04:55:52;;;;;;;53.92;44.75;;;;;;;19.89;80.39;101061.69;5148898;27;20815;-50
2021/06/29 04:58:30;;;;;;;53.63;44.50;;;;;;;19.86;80.40;101054.03;4496183;27;18573409;-54
2021/06/29 05:01:30;;;;;;;56.08;44.42;;;;;;;19.86;80.55;101042.97;5129308;27;20416;-51
2021/06/29 05:04:28;;;;;;;53.28;44.95;;;;;;;19.83;80.39;101035.34;5185097;27;20799;-49
2021/06/29 05:07:28;;;;;;;56.22;46.15;;;;;;;19.82;80.60;101035.66;5133573;27;20398;-51
2021/06/29 05:10:10;;;;;;;52.65;44.65;;;;;;;19.79;80.62;101042.66;4499848;27;18587952;-48
2021/06/29 05:13:07;;;;;;;55.60;44.65;;;;;;;19.77;80.73;101044.91;5183288;27;20396;-50
2021/06/29 05:15:46;;;;;;;53.53;42.53;;;;;;;19.78;80.88;101044.59;4486459;27;18813429;-49
2021/06/29 05:18:25;;;;;;;55.55;46.00;;;;;;;19.82;80.66;101042.00;4500703;27;18546680;-51
2021/06/29 05:21:37;;;;;;;53.90;43.97;;;;;;;19.81;80.73;101045.09;5148391;27;20417;-50
2021/06/29 05:24:16;;;;;;;54.60;44.67;;;;;;;19.81;80.73;101042.31;4492347;27;18649857;-49
2021/06/29 05:27:13;;;;;;;54.40;45.70;;;;;;;19.77;80.87;101044.91;5179174;27;20381;-47
2021/06/29 05:29:51;;;;;;;52.42;42.33;;;;;;;19.73;80.82;101049.50;4504851;27;18546500;-47
2021/06/29 05:32:30;;;;;;;47.78;40.17;;;;;;;19.76;81.05;101048.84;4497655;27;18521181;-53
2021/06/29 05:35:29;;;;;;;51.88;44.58;;;;;;;19.75;81.01;101059.09;5148378;27;20405;-50
2021/06/29 05:38:25;;;;;;;53.10;43.08;;;;;;;19.77;81.10;101075.34;5193192;27;20419;-53
2021/06/29 05:41:25;;;;;;;54.40;42.80;;;;;;;19.77;81.02;101076.16;5148667;27;20393;-54
2021/06/29 05:44:03;;;;;;;52.45;44.53;;;;;;;19.78;81.08;101068.69;4499729;27;18609643;-48
2021/06/29 05:47:04;;;;;;;53.85;42.75;;;;;;;19.78;80.96;101076.97;5193260;27;20422;-52
2021/06/29 05:49:42;;;;;;;45.83;36.93;;;;;;;19.80;81.06;101074.69;4506875;27;18732494;-49
2021/06/29 05:52:40;;;;;;;50.13;40.80;;;;;;;19.84;80.94;101077.63;5192999;27;20426;-53
2021/06/29 05:55:18;;;;;;;50.53;42.03;;;;;;;19.85;80.64;101080.06;4498011;27;18760948;-49
2021/06/29 05:58:17;;;;;;;51.22;42.63;;;;;;;19.85;80.89;101087.56;5192911;27;20391;-49
2021/06/29 06:00:55;;;;;;;51.90;41.87;;;;;;;19.82;80.78;101080.72;4492763;27;18707928;-48
2021/06/29 06:03:54;;;;;;;44.08;35.58;;;;;;;19.83;80.61;101081.53;5192796;27;20387;-48
2021/06/29 06:06:49;;;;;;;54.17;42.67;;;;;;;19.82;81.15;101091.78;5134047;27;20398;-48
2021/06/29 06:09:43;;;;;;;52.50;41.92;;;;;;;19.81;81.30;101081.03;5148764;27;20398;-48
2021/06/29 06:12:41;;;;;;;55.63;45.20;;;;;;;19.78;81.44;101080.53;5193146;27;20778;-50
2021/06/29 06:15:53;;;;;;;53.83;43.60;;;;;;;19.78;81.70;101074.22;5148846;27;20446;-49
2021/06/29 06:18:50;;;;;;;55.80;43.92;;;;;;;19.78;81.86;101068.69;5192516;27;20411;-49
2021/06/29 06:21:47;;;;;;;47.25;35.90;;;;;;;19.82;81.48;101066.06;5148935;27;20401;-49
2021/06/29 06:24:25;;;;;;;51.67;42.07;;;;;;;19.85;81.68;101069.00;4504326;27;18640003;-49
2021/06/29 06:27:04;;;;;;;41.43;32.13;;;;;;;19.90;80.96;101070.81;4045980;27;30019293;-47
2021/06/29 06:29:43;;;;;;;53.77;45.00;;;;;;;19.89;81.28;101078.28;4282469;27;24129226;-49
2021/06/29 06:32:39;;;;;;;50.15;39.90;;;;;;;19.86;81.34;101075.34;5148576;27;20436;-49
2021/06/29 06:35:36;;;;;;;44.15;35.38;;;;;;;19.86;81.50;101076.16;5192972;27;20473;-51
2021/06/29 06:38:14;;;;;;;47.43;36.27;;;;;;;19.96;79.45;101089.69;4053643;27;30131930;-50
2021/06/29 06:41:14;;;;;;;41.53;31.95;;;;;;;19.99;79.48;101075.19;5192858;27;20479;-48
2021/06/29 06:44:12;;;;;;;53.05;43.97;;;;;;;19.98;80.01;101079.09;5192887;27;20414;-50
2021/06/29 06:46:51;;;;;;;28.80;22.25;;;;;;;19.97;80.23;101077.47;4480283;27;18515175;-49
2021/06/29 06:49:29;;;;;;;59.50;46.27;;;;;;;19.95;80.42;101074.22;4513190;27;18785719;-50
2021/06/29 06:52:07;;;;;;;42.93;36.60;;;;;;;19.92;80.46;101077.63;4065587;27;30062143;-50
2021/06/29 06:54:45;;;;;;;53.70;44.00;;;;;;;19.89;80.73;101081.06;4488070;27;18722882;-50
2021/06/29 06:57:42;;;;;;;47.22;35.90;;;;;;;19.89;80.36;101086.59;5192048;27;20426;-49
2021/06/29 07:00:39;;;;;;;58.92;46.90;;;;;;;19.89;80.58;101092.13;5191628;27;20415;-49
2021/06/29 07:03:44;;;;;;;60.58;48.42;;;;;;;19.87;80.38;101077.78;5147425;27;20450;-48
2021/06/29 07:06:22;;;;;;;66.93;49.73;;;;;;;19.88;80.47;101079.41;4493856;27;18661346;-49
2021/06/29 07:09:18;;;;;;;64.95;52.17;;;;;;;19.90;80.49;101081.88;5143070;27;20522;-51
2021/06/29 07:12:18;;;;;;;65.22;49.67;;;;;;;19.94;80.10;101083.66;5183057;27;20794;-50
2021/06/29 07:15:14;;;;;;;66.13;50.25;;;;;;;20.00;79.82;101081.53;5147300;27;20485;-50
2021/06/29 07:17:52;;;;;;;53.03;40.93;;;;;;;20.06;79.80;101088.53;4485628;27;18710808;-49
2021/06/29 07:20:49;;;;;;;66.20;51.25;;;;;;;20.06;79.48;101080.25;5177553;27;20388;-49
2021/06/29 07:23:29;;;;;;;64.05;40.88;;;;;;;20.09;79.07;101084.31;5058408;28;20561;-49
2021/06/29 07:26:15;;;;;;;64.35;47.40;;;;;;;20.10;79.25;101085.91;5061692;28;20445;-50
2021/06/29 07:28:55;;;;;;;65.25;47.47;;;;;;;20.12;79.10;101083.66;5062895;28;20392;-51
2021/06/29 07:31:35;;;;;;;78.40;58.30;;;;;;;20.07;79.51;101081.84;5061252;28;20492;-51
2021/06/29 07:34:13;;;;;;;72.97;55.60;;;;;;;20.05;79.36;101083.31;5108403;27;1218473;-48
2021/06/29 07:36:54;;;;;;;76.05;57.30;;;;;;;20.03;79.56;101074.53;5059765;28;20391;-50
2021/06/29 07:39:36;;;;;;;58.05;42.15;;;;;;;20.05;79.71;101072.25;5067775;28;20451;-50
2021/06/29 07:42:16;;;;;;;59.22;40.28;;;;;;;20.10;79.39;101072.91;5060495;28;20388;-49
2021/06/29 07:44:56;;;;;;;79.82;58.05;;;;;;;20.16;79.21;101068.03;5066793;28;20999;-50
2021/06/29 07:47:35;;;;;;;92.82;67.10;;;;;;;20.20;79.31;101069.81;5057072;28;20396;-49
2021/06/29 07:50:15;;;;;;;100.68;69.82;;;;;;;20.20;79.05;101074.50;5049379;28;20774;-49
2021/06/29 07:52:54;;;;;;;101.15;71.65;;;;;;;20.15;79.04;101078.25;5025886;27;1258350;-50
2021/06/29 07:55:32;;;;;;;95.43;71.18;;;;;;;20.10;78.85;101069.31;5118631;27;1249862;-47
2021/06/29 07:58:13;;;;;;;92.97;70.53;;;;;;;20.11;78.77;101069.00;5066890;28;20388;-50
2021/06/29 08:00:52;;;;;;;88.78;63.38;;;;;;;20.15;78.43;101067.19;5102767;27;1232826;-50
2021/06/29 08:03:31;;;;;;;98.88;70.70;;;;;;;20.20;78.13;101071.75;5088473;27;1229909;-49
2021/06/29 08:06:10;;;;;;;101.20;73.30;;;;;;;20.18;77.39;101065.75;5098341;27;1236943;-50
2021/06/29 08:08:49;;;;;;;91.90;67.72;;;;;;;20.19;77.75;101068.19;5068209;28;20391;-50
2021/06/29 08:11:29;;;;;;;91.38;69.75;;;;;;;20.19;77.30;101068.19;5067463;28;20476;-50
2021/06/29 08:14:09;;;;;;;75.20;56.90;;;;;;;20.17;76.50;101075.19;5068813;28;20917;-49
2021/06/29 08:16:49;;;;;;;75.00;54.17;;;;;;;20.20;76.38;101066.22;5068745;28;20387;-49
2021/06/29 08:19:29;;;;;;;87.15;64.68;;;;;;;20.23;76.29;101073.88;5069380;28;20398;-49
2021/06/29 08:22:08;;;;;;;86.07;63.97;;;;;;;20.30;76.21;101068.66;5069486;28;20379;-48
2021/06/29 08:24:48;;;;;;;85.32;64.50;;;;;;;20.36;76.04;101070.09;5069305;28;20390;-49
2021/06/29 08:27:28;;;;;;;88.13;63.42;;;;;;;20.39;76.16;101071.41;5095211;27;1226814;-50
2021/06/29 08:30:11;;;;;;;70.25;52.78;;;;;;;20.39;75.76;101072.22;5068912;28;20452;-47
2021/06/29 08:32:49;;;;;;;71.82;50.67;;;;;;;20.43;75.35;101081.50;5093004;27;1235474;-48
2021/06/29 08:35:29;;;;;;;90.43;64.55;;;;;;;20.41;74.98;101086.53;5069278;28;20457;-51
2021/06/29 08:38:07;;;;;;;84.78;60.17;;;;;;;20.39;74.86;101088.00;5111309;27;1225300;-48
2021/06/29 08:40:48;;;;;;;85.25;61.85;;;;;;;20.32;74.31;101076.63;5069401;28;20508;-47
2021/06/29 08:43:28;;;;;;;88.20;62.88;;;;;;;20.30;75.03;101085.28;5069315;28;20382;-50
2021/06/29 08:46:09;;;;;;;85.95;60.92;;;;;;;20.32;74.92;101088.50;5068378;28;20391;-47
2021/06/29 08:48:48;;;;;;;89.07;63.78;;;;;;;20.32;75.10;101094.03;5102330;27;1221926;-49
2021/06/29 08:51:28;;;;;;;93.28;65.72;;;;;;;20.33;75.00;101089.34;5069279;28;20386;-51
2021/06/29 08:54:08;;;;;;;87.80;63.63;;;;;;;20.31;75.00;101086.88;5069182;28;20904;-59
2021/06/29 09:01:05;;;;;;;83.55;59.95;;;;;;;20.36;75.46;101086.72;5068399;28;20369;-51
2021/06/29 09:03:45;;;;;;;88.32;60.45;;;;;;;20.37;75.26;101077.28;5069153;27;1224484;-51
2021/06/29 09:06:35;;;;;;;90.65;63.38;;;;;;;20.37;75.38;101080.06;5038533;28;20480;-51
2021/06/29 09:09:28;;;;;;;90.20;63.53;;;;;;;20.41;75.31;101088.50;5101228;27;1241981;-51
2021/06/29 09:12:10;;;;;;;88.20;62.80;;;;;;;20.42;75.51;101093.72;5066641;28;20476;-52
2021/06/29 09:14:49;;;;;;;91.57;64.43;;;;;;;20.38;74.85;101092.72;5068645;28;20473;-53
2021/06/29 09:17:29;;;;;;;88.25;61.80;;;;;;;20.43;74.76;101095.31;5069263;28;20904;-51
2021/06/29 09:20:11;;;;;;;83.38;59.50;;;;;;;20.44;74.05;101085.06;5069475;28;20382;-50
2021/06/29 09:22:53;;;;;;;88.43;59.22;;;;;;;20.51;74.39;101082.59;5069316;28;20473;-53
2021/06/29 09:26:22;;;;;;;83.05;56.58;;;;;;;20.58;72.77;101073.84;5068992;28;20394;-51
2021/06/29 09:29:05;;;;;;;79.13;53.40;;;;;;;20.60;72.83;101074.31;5109443;27;20742;-50
2021/06/29 09:31:45;;;;;;;63.08;45.53;;;;;;;20.69;72.56;101082.63;5106030;27;1244539;-52
2021/06/29 09:34:29;;;;;;;81.47;55.95;;;;;;;20.80;72.07;101087.44;5068832;28;20991;-52
2021/06/29 09:37:25;;;;;;;88.28;60.00;;;;;;;20.80;71.74;101084.66;5069504;28;20379;-51
2021/06/29 09:40:12;;;;;;;80.05;54.25;;;;;;;20.83;71.40;101074.91;5069353;28;20244;-50
2021/06/29 09:42:53;;;;;;;76.75;55.05;;;;;;;20.92;71.51;101072.09;5068614;28;20731;-51
2021/06/29 09:45:42;;;;;;;89.13;57.67;;;;;;;20.92;71.58;101077.63;5068616;28;20391;-49
2021/06/29 09:48:53;;;;;;;83.45;58.13;;;;;;;20.94;72.60;101075.34;5110708;27;1241265;-51
2021/06/29 09:52:05;;;;;;;83.53;60.30;;;;;;;20.88;73.24;101076.66;5102510;27;1241135;-52
2021/06/29 09:54:44;;;;;;;82.10;57.50;;;;;;;20.82;73.72;101079.63;5068984;28;20383;-50
2021/06/29 09:57:25;;;;;;;80.15;56.03;;;;;;;20.85;74.16;101084.53;5068926;28;20892;-50
2021/06/29 10:00:05;;;;;;;75.88;54.92;;;;;;;20.81;73.11;101078.00;5068992;28;20453;-54
2021/06/29 10:02:49;;;;;;;76.78;56.20;;;;;;;20.83;73.37;101086.00;5072338;27;1921749;-50
2021/06/29 10:05:31;;;;;;;74.60;52.80;;;;;;;20.88;73.22;101093.28;5115264;27;1218409;-49
2021/06/29 10:08:20;;;;;;;74.13;52.50;;;;;;;20.92;73.62;101089.53;5069150;28;20450;-51
2021/06/29 10:11:28;;;;;;;72.85;55.60;;;;;;;20.96;72.62;101090.50;5089229;28;20470;-53
2021/06/29 10:14:17;;;;;;;69.25;49.00;;;;;;;21.03;71.79;101095.53;5092307;27;1242540;-48
2021/06/29 10:16:57;;;;;;;66.13;48.78;;;;;;;21.10;71.26;101095.00;5069073;28;20402;-52
2021/06/29 10:19:48;;;;;;;75.95;55.83;;;;;;;21.13;71.27;101097.09;5069506;28;20391;-52
2021/06/29 10:22:28;;;;;;;71.20;51.63;;;;;;;21.12;71.01;101104.63;5117162;27;1237203;-50
2021/06/29 10:25:09;;;;;;;69.53;48.97;;;;;;;21.14;71.43;101099.56;5089289;27;20388;-51
2021/06/29 10:27:48;;;;;;;57.20;43.35;;;;;;;21.23;69.97;101085.66;5106123;27;1259003;-53
2021/06/29 10:30:29;;;;;;;53.10;39.67;;;;;;;21.27;69.99;101089.38;5069171;28;20397;-51
2021/06/29 10:33:09;;;;;;;56.03;42.13;;;;;;;21.32;69.44;101085.59;4709716;28;10000027;-51
2021/06/29 10:35:50;;;;;;;50.53;38.35;;;;;;;21.36;69.15;101092.09;5067038;28;20391;-54
2021/06/29 10:38:29;;;;;;;55.28;40.00;;;;;;;21.38;69.07;101089.78;5101030;27;1232216;-55
2021/06/29 10:41:09;;;;;;;54.75;40.83;;;;;;;21.38;69.43;101087.84;5066729;28;20391;-53
2021/06/29 10:43:52;;;;;;;65.35;45.67;;;;;;;21.41;69.78;101081.66;5066674;28;20452;-51
2021/06/29 10:46:31;;;;;;;59.78;44.78;;;;;;;21.47;69.31;101085.84;5066823;28;20445;-51
2021/06/29 10:49:36;;;;;;;55.20;42.17;;;;;;;21.52;69.20;101084.84;5067353;28;20492;-50
2021/06/29 10:52:31;;;;;;;44.08;32.50;;;;;;;21.62;68.81;101083.66;5058602;28;20237;-49
2021/06/29 10:55:29;;;;;;;52.95;39.30;;;;;;;21.64;68.31;101076.59;5048862;28;20493;-50
2021/06/29 10:58:07;;;;;;;54.65;41.72;;;;;;;21.61;67.86;101082.84;5106690;27;1229504;-48
2021/06/29 11:00:46;;;;;;;51.83;37.72;;;;;;;21.60;68.59;101086.78;5058669;28;20392;-50
2021/06/29 11:03:38;;;;;;;48.38;35.72;;;;;;;21.57;68.11;101070.78;5104032;27;1231414;-51
2021/06/29 11:06:50;;;;;;;51.30;37.50;;;;;;;21.52;68.50;101068.22;5094269;27;1258830;-51
2021/06/29 11:09:53;;;;;;;45.78;32.88;;;;;;;21.49;68.90;101071.66;5086464;27;20451;-48
2021/06/29 11:12:47;;;;;;;46.55;32.88;;;;;;;21.48;68.53;101065.31;5060640;28;20461;-48
2021/06/29 11:15:44;;;;;;;50.90;35.47;;;;;;;21.50;68.78;101059.41;5086560;27;20455;-51
2021/06/29 11:18:44;;;;;;;38.75;29.13;;;;;;;21.55;66.70;101064.78;5067129;28;20501;-51
2021/06/29 11:21:24;;;;;;;37.13;26.52;;;;;;;21.55;67.08;101056.47;5101202;27;1234122;-50
2021/06/29 11:24:42;;;;;;;42.85;30.17;;;;;;;21.61;67.94;101049.56;5092841;27;1228416;-51
2021/06/29 11:28:00;;;;;;;47.60;32.33;;;;;;;21.69;66.88;101047.88;5067129;28;20456;-52
2021/06/29 11:31:12;;;;;;;38.95;28.65;;;;;;;21.78;66.34;101042.25;5066258;28;20504;-50
2021/06/29 11:34:25;;;;;;;33.03;22.23;;;;;;;21.89;66.01;101040.72;5047366;28;20403;-51
2021/06/29 11:37:05;;;;;;;34.05;27.05;;;;;;;21.95;65.51;101035.75;5063642;28;20801;-53
2021/06/29 11:39:57;;;;;;;35.15;26.17;;;;;;;21.91;65.81;101025.34;5063624;28;20456;-52
2021/06/29 11:42:38;;;;;;;32.55;24.05;;;;;;;21.97;65.08;101025.94;5060526;28;20388;-54
2021/06/29 11:45:30;;;;;;;33.85;25.77;;;;;;;21.94;65.18;101026.63;5101878;27;1226626;-55
2021/06/29 11:48:49;;;;;;;29.85;22.77;;;;;;;21.91;65.05;101014.25;5095960;27;1234312;-51
2021/06/29 11:51:52;;;;;;;32.45;24.33;;;;;;;21.96;65.79;101016.00;5033175;28;20410;-53
2021/06/29 11:54:43;;;;;;;29.13;21.75;;;;;;;22.04;65.54;101017.88;5119349;27;20801;-52
2021/06/29 11:57:35;;;;;;;23.02;18.25;;;;;;;22.09;62.94;101019.63;5057177;28;20728;-52
2021/06/29 12:00:19;;;;;;;25.55;20.63;;;;;;;22.09;64.89;101023.22;5091402;27;1235871;-51
2021/06/29 12:03:02;;;;;;;17.52;13.77;;;;;;;22.15;63.19;101009.13;5055188;28;20396;-54
2021/06/29 12:05:44;;;;;;;16.15;12.05;;;;;;;22.24;62.90;101010.69;5060067;28;20387;-50
2021/06/29 12:08:27;;;;;;;16.48;12.10;;;;;;;22.33;63.13;101005.03;5104986;27;1262586;-49
2021/06/29 12:11:07;;;;;;;19.63;14.50;;;;;;;22.38;62.31;101010.38;5107658;27;20389;-51
2021/06/29 12:13:48;;;;;;;17.00;13.88;;;;;;;22.34;62.01;101012.19;5064373;28;20458;-50
2021/06/29 12:16:28;;;;;;;13.20;10.77;;;;;;;22.33;60.35;101008.63;5067216;28;20401;-49
2021/06/29 12:19:10;;;;;;;17.10;11.00;;;;;;;22.39;60.15;101003.66;5067653;28;20383;-54
2021/06/29 12:21:50;;;;;;;18.65;11.40;;;;;;;22.42;61.29;100994.66;5067129;28;20379;-55
2021/06/29 12:24:28;;;;;;;14.35;10.57;;;;;;;22.44;61.61;100992.34;5116679;27;1226319;-50
2021/06/29 12:27:17;;;;;;;15.35;11.82;;;;;;;22.41;62.01;100995.78;5067685;28;20444;-53
2021/06/29 12:29:57;;;;;;;13.38;9.80;;;;;;;22.38;61.96;100990.13;5067472;28;20387;-50
2021/06/29 12:32:42;;;;;;;19.50;12.88;;;;;;;22.46;62.40;100990.00;5059388;28;20466;-48
2021/06/29 12:35:22;;;;;;;16.10;12.55;;;;;;;22.48;61.00;100989.69;5067058;28;20401;-52
2021/06/29 12:38:05;;;;;;;16.27;11.77;;;;;;;22.46;61.06;100995.56;5066872;28;20457;-48
2021/06/29 12:40:48;;;;;;;14.18;10.25;;;;;;;22.57;61.91;100989.59;5067289;28;20379;-51
2021/06/29 12:43:29;;;;;;;15.52;10.50;;;;;;;22.61;60.57;100984.94;5127710;27;20383;-53
2021/06/29 12:46:21;;;;;;;14.45;9.70;;;;;;;22.56;59.94;100983.19;5066457;28;21010;-52
2021/06/29 12:49:08;;;;;;;13.15;9.35;;;;;;;22.62;60.61;100984.59;5075644;27;1233998;-49
2021/06/29 12:51:49;;;;;;;11.25;8.13;;;;;;;22.69;58.80;100979.28;5066838;28;20465;-49
2021/06/29 12:54:30;;;;;;;13.68;8.32;;;;;;;22.78;59.23;100979.19;5067029;28;20768;-50
2021/06/29 12:57:12;;;;;;;13.18;9.18;;;;;;;22.72;58.79;100972.22;5066782;28;20402;-53
2021/06/29 12:59:52;;;;;;;13.57;9.63;;;;;;;22.67;59.38;100969.69;5087115;27;20492;-52